Time;durP1;ratioP1;P1;durP2;ratioP2;P2;SDS_P1;SDS_P2;PMS_P1;PMS_P2;Temp;Humidity;BMP_temperature;BMP_pressure;BME280_temperature;BME280_humidity;BME280_pressure;Samples;Min_cycle;Max_cycle;Signal;HPM_P1;HPM_P2
2021/11/29 00:00:40;;;;;;;52.60;22.23;;;9.20;91.30;;;;;;5077757;28;20101;-38
2021/11/29 00:03:11;;;;;;;42.70;18.42;;;9.20;91.30;;;;;;5077843;28;20037;-34
2021/11/29 00:05:37;;;;;;;35.30;16.63;;;9.20;91.30;;;;;;5078092;28;20507;-34
2021/11/29 00:08:03;;;;;;;47.38;20.02;;;9.20;91.30;;;;;;5077932;28;20110;-39
2021/11/29 00:10:31;;;;;;;61.25;22.05;;;9.20;91.30;;;;;;5077672;28;20029;-39
2021/11/29 00:12:57;;;;;;;106.28;26.38;;;9.20;91.40;;;;;;5078029;28;20055;-39
2021/11/29 00:15:24;;;;;;;67.00;22.40;;;9.30;91.40;;;;;;5077925;28;20032;-39
2021/11/29 00:17:50;;;;;;;48.88;21.02;;;9.20;91.40;;;;;;5077864;28;20048;-34
2021/11/29 00:20:17;;;;;;;58.50;20.92;;;9.20;91.50;;;;;;5077559;28;20055;-34
2021/11/29 00:22:43;;;;;;;76.45;21.45;;;9.20;91.60;;;;;;5077452;28;20029;-39
2021/11/29 00:25:09;;;;;;;81.03;24.52;;;9.20;91.60;;;;;;5077322;28;20024;-39
2021/11/29 00:27:36;;;;;;;116.90;27.63;;;9.30;91.60;;;;;;5077391;28;20051;-34
2021/11/29 00:30:04;;;;;;;42.97;20.45;;;9.30;91.60;;;;;;5077876;28;20032;-34
2021/11/29 00:32:30;;;;;;;58.15;22.25;;;9.30;91.60;;;;;;5077476;28;20509;-34
2021/11/29 00:34:55;;;;;;;56.97;21.15;;;9.30;91.70;;;;;;5077081;28;20120;-39
2021/11/29 00:37:21;;;;;;;74.28;20.85;;;9.30;91.70;;;;;;5077175;28;20129;-39
2021/11/29 00:39:47;;;;;;;72.75;22.08;;;9.30;92.00;;;;;;5077581;28;20083;-34
2021/11/29 00:42:12;;;;;;;89.50;22.65;;;9.30;91.70;;;;;;5077385;28;20073;-34
2021/11/29 00:44:38;;;;;;;66.28;21.65;;;9.30;91.60;;;;;;5077147;28;20036;-34
2021/11/29 00:47:04;;;;;;;143.30;29.08;;;9.30;91.50;;;;;;5077286;28;20029;-39
2021/11/29 00:49:30;;;;;;;111.07;27.50;;;9.30;91.30;;;;;;5077326;28;20392;-33
2021/11/29 00:51:56;;;;;;;45.60;22.25;;;9.30;91.20;;;;;;5076999;28;20032;-34
2021/11/29 00:54:21;;;;;;;56.10;23.05;;;9.30;91.20;;;;;;5076620;28;20072;-39
2021/11/29 00:56:47;;;;;;;40.88;21.95;;;9.30;91.20;;;;;;5076997;28;20033;-34
2021/11/29 00:59:13;;;;;;;68.45;26.85;;;9.30;91.20;;;;;;5077112;28;20025;-35
2021/11/29 01:01:39;;;;;;;69.97;25.73;;;9.30;91.30;;;;;;5076743;28;20024;-39
2021/11/29 01:04:04;;;;;;;43.97;21.33;;;9.30;91.30;;;;;;5077001;28;20017;-34
2021/11/29 01:06:30;;;;;;;57.67;22.55;;;9.30;91.30;;;;;;5075690;28;20082;-39
2021/11/29 01:08:56;;;;;;;39.60;19.73;;;9.30;91.40;;;;;;5076903;28;20021;-37
2021/11/29 01:11:21;;;;;;;52.80;21.67;;;9.30;91.60;;;;;;5076749;28;20332;-36
2021/11/29 01:13:47;;;;;;;46.65;21.25;;;9.30;91.70;;;;;;5076805;28;20021;-39
2021/11/29 01:16:13;;;;;;;59.10;23.27;;;9.30;91.90;;;;;;5076539;28;20119;-39
2021/11/29 01:18:39;;;;;;;50.88;22.42;;;9.30;92.00;;;;;;5076659;28;20063;-39
2021/11/29 01:21:05;;;;;;;42.97;21.00;;;9.40;92.10;;;;;;5076668;28;20055;-35
2021/11/29 01:23:31;;;;;;;54.95;21.83;;;9.40;92.20;;;;;;5076526;28;20400;-34
2021/11/29 01:25:57;;;;;;;53.72;21.67;;;9.40;92.20;;;;;;5076587;28;20059;-39
2021/11/29 01:28:24;;;;;;;44.60;21.10;;;9.50;92.40;;;;;;5076401;28;20111;-34
2021/11/29 01:30:50;;;;;;;56.95;23.10;;;9.50;92.40;;;;;;5076752;28;20029;-35
2021/11/29 01:33:17;;;;;;;47.83;21.25;;;9.60;92.40;;;;;;5075191;28;20016;-34
2021/11/29 01:35:42;;;;;;;54.80;23.45;;;9.60;92.40;;;;;;5058674;28;20032;-35
2021/11/29 01:38:08;;;;;;;41.78;21.48;;;9.60;92.40;;;;;;5075027;28;20031;-39
2021/11/29 01:40:36;;;;;;;53.47;24.73;;;9.70;92.40;;;;;;5076239;28;20114;-40
2021/11/29 01:43:05;;;;;;;61.78;26.00;;;9.70;92.40;;;;;;5076506;28;20047;-34
2021/11/29 01:45:46;;;;;;;41.55;21.35;;;9.70;92.40;;;;;;5076512;28;20033;-34
2021/11/29 01:48:13;;;;;;;55.88;26.17;;;9.70;92.40;;;;;;5076219;28;20013;-33
2021/11/29 01:50:42;;;;;;;47.45;22.55;;;9.70;92.40;;;;;;5076268;28;20369;-40
2021/11/29 01:53:09;;;;;;;59.88;25.67;;;9.80;92.50;;;;;;5075968;28;20029;-33
2021/11/29 01:55:37;;;;;;;49.67;23.40;;;9.80;92.50;;;;;;5075802;28;20045;-39
2021/11/29 01:58:04;;;;;;;58.22;25.00;;;9.80;92.60;;;;;;5075975;28;20039;-34
2021/11/29 02:00:35;;;;;;;51.75;22.98;;;9.80;92.70;;;;;;5075918;28;20036;-34
2021/11/29 02:03:01;;;;;;;57.15;25.73;;;9.80;92.70;;;;;;5075868;28;20032;-34
2021/11/29 02:05:27;;;;;;;57.65;24.92;;;9.90;92.70;;;;;;5075797;28;20090;-34
2021/11/29 02:07:53;;;;;;;70.43;26.73;;;9.90;92.70;;;;;;5075963;28;20055;-33
2021/11/29 02:10:23;;;;;;;67.75;25.83;;;9.90;92.90;;;;;;5076238;28;20467;-39
2021/11/29 02:12:49;;;;;;;76.05;28.63;;;9.90;92.70;;;;;;5075848;28;20147;-36
2021/11/29 02:15:16;;;;;;;78.53;30.02;;;9.90;92.70;;;;;;5075747;28;20037;-39
2021/11/29 02:17:43;;;;;;;69.50;26.83;;;9.90;92.70;;;;;;5077887;28;20108;-39
2021/11/29 02:20:10;;;;;;;74.90;27.63;;;10.00;92.80;;;;;;5079966;28;20033;-39
2021/11/29 02:22:36;;;;;;;66.32;25.42;;;10.00;92.80;;;;;;5079785;28;20036;-38
2021/11/29 02:25:03;;;;;;;69.30;26.45;;;10.00;92.90;;;;;;5080286;28;20036;-39
2021/11/29 02:27:29;;;;;;;54.20;23.40;;;10.00;92.80;;;;;;5080014;28;20105;-34
2021/11/29 02:29:57;;;;;;;59.88;24.13;;;10.10;92.80;;;;;;5080078;28;20414;-34
2021/11/29 02:32:22;;;;;;;64.88;26.35;;;10.10;92.90;;;;;;5080207;28;20302;-34
2021/11/29 02:34:49;;;;;;;61.25;24.40;;;10.10;92.90;;;;;;5080032;28;20035;-34
2021/11/29 02:37:15;;;;;;;59.08;23.95;;;10.10;92.90;;;;;;5079507;28;20113;-33
2021/11/29 02:39:42;;;;;;;58.53;24.05;;;10.20;92.90;;;;;;5079940;28;20039;-39
2021/11/29 02:42:11;;;;;;;65.68;24.33;;;10.20;92.90;;;;;;5079391;28;20033;-39
2021/11/29 02:44:37;;;;;;;69.97;25.40;;;10.20;92.90;;;;;;5079842;28;20119;-39
2021/11/29 02:47:04;;;;;;;45.88;20.73;;;10.20;92.70;;;;;;5079406;28;20038;-35
2021/11/29 02:49:30;;;;;;;46.28;21.98;;;10.20;92.50;;;;;;5078318;28;20032;-34
2021/11/29 02:51:59;;;;;;;42.90;20.65;;;10.30;92.40;;;;;;5079309;28;20320;-39
2021/11/29 02:54:28;;;;;;;40.70;20.02;;;10.30;92.20;;;;;;5079131;28;20044;-34
2021/11/29 02:56:57;;;;;;;42.67;20.48;;;10.30;92.20;;;;;;5079204;28;20028;-39
2021/11/29 02:59:28;;;;;;;40.33;20.38;;;10.30;92.30;;;;;;5079281;28;20404;-39
2021/11/29 03:02:00;;;;;;;39.50;18.25;;;10.20;92.30;;;;;;5079333;28;20021;-39
2021/11/29 03:04:28;;;;;;;34.33;18.95;;;10.30;92.20;;;;;;5079310;28;20028;-34
2021/11/29 03:06:54;;;;;;;30.88;18.02;;;10.30;92.10;;;;;;5078986;28;20036;-33
2021/11/29 03:09:22;;;;;;;36.90;19.38;;;10.30;92.10;;;;;;5079203;28;20308;-34
2021/11/29 03:11:48;;;;;;;42.50;20.05;;;10.20;92.10;;;;;;5078881;28;20024;-34
2021/11/29 03:14:15;;;;;;;31.25;16.88;;;10.30;92.00;;;;;;5079136;28;20286;-33
2021/11/29 03:16:41;;;;;;;28.15;16.20;;;10.20;92.00;;;;;;5079084;28;20040;-41
2021/11/29 03:19:06;;;;;;;32.17;16.27;;;10.20;91.80;;;;;;5079009;28;20177;-38
2021/11/29 03:21:33;;;;;;;25.45;14.77;;;10.20;91.70;;;;;;5078525;28;20025;-39
2021/11/29 03:24:02;;;;;;;27.52;13.80;;;10.20;91.50;;;;;;5078876;28;20051;-34
2021/11/29 03:26:29;;;;;;;23.80;14.35;;;10.20;91.40;;;;;;5078699;28;20028;-34
2021/11/29 03:29:01;;;;;;;23.38;13.23;;;10.10;91.30;;;;;;5077963;28;20029;-33
2021/11/29 03:31:32;;;;;;;21.95;11.52;;;10.10;91.20;;;;;;5078492;28;20413;-39
2021/11/29 03:33:58;;;;;;;19.90;11.90;;;10.10;91.10;;;;;;5078683;28;20033;-34
2021/11/29 03:36:25;;;;;;;26.80;14.63;;;10.00;91.10;;;;;;5078393;28;20082;-33
2021/11/29 03:38:51;;;;;;;24.75;14.98;;;10.00;91.10;;;;;;5078702;28;20047;-37
2021/11/29 03:41:17;;;;;;;26.50;14.07;;;10.00;91.30;;;;;;5078559;28;20476;-39
2021/11/29 03:43:43;;;;;;;23.33;13.45;;;9.90;91.30;;;;;;5078481;28;20036;-38
2021/11/29 03:46:10;;;;;;;22.25;12.23;;;9.90;91.40;;;;;;5078104;28;20135;-39
2021/11/29 03:48:36;;;;;;;22.88;12.68;;;9.90;91.30;;;;;;5078363;28;20064;-35
2021/11/29 03:51:03;;;;;;;26.35;12.68;;;9.90;91.20;;;;;;5078192;28;20324;-35
2021/11/29 03:53:28;;;;;;;33.28;14.43;;;9.90;91.10;;;;;;5077979;28;20059;-34
2021/11/29 03:55:54;;;;;;;27.33;13.13;;;9.90;91.10;;;;;;5078122;28;20032;-39
2021/11/29 03:58:20;;;;;;;28.23;13.00;;;9.80;91.00;;;;;;5078191;28;20036;-33
2021/11/29 04:00:46;;;;;;;38.13;14.48;;;9.80;91.00;;;;;;5078291;28;20143;-39
2021/11/29 04:03:12;;;;;;;65.55;19.83;;;9.80;91.00;;;;;;5077873;28;20029;-39
2021/11/29 04:05:38;;;;;;;48.40;16.95;;;9.80;91.10;;;;;;5077613;28;20039;-35
2021/11/29 04:08:04;;;;;;;41.47;17.17;;;9.70;91.00;;;;;;5078057;28;20028;-39
2021/11/29 04:10:30;;;;;;;32.97;16.27;;;9.70;91.10;;;;;;5077680;28;20119;-34
2021/11/29 04:12:56;;;;;;;22.27;12.00;;;9.70;91.00;;;;;;5078017;28;20048;-39
2021/11/29 04:15:22;;;;;;;15.82;9.93;;;9.70;91.10;;;;;;5077603;28;20170;-38
2021/11/29 04:17:47;;;;;;;18.23;10.00;;;9.70;91.10;;;;;;5077567;28;20036;-34
2021/11/29 04:20:15;;;;;;;16.42;9.68;;;9.70;90.90;;;;;;5077524;28;20115;-34
2021/11/29 04:22:45;;;;;;;17.45;9.43;;;9.70;90.80;;;;;;5077478;28;20028;-35
2021/11/29 04:25:14;;;;;;;24.20;12.15;;;9.60;90.80;;;;;;5077426;28;20119;-34
2021/11/29 04:27:41;;;;;;;19.35;10.40;;;9.60;90.90;;;;;;5077417;28;20371;-39
2021/11/29 04:30:13;;;;;;;24.52;11.70;;;9.60;91.00;;;;;;5077691;28;20385;-33
2021/11/29 04:32:40;;;;;;;31.67;15.35;;;9.60;91.10;;;;;;5077494;28;20099;-35
2021/11/29 04:35:06;;;;;;;22.90;13.23;;;9.60;91.20;;;;;;5077561;28;20036;-39
2021/11/29 04:37:32;;;;;;;20.70;11.95;;;9.60;91.30;;;;;;5077046;28;20066;-34
2021/11/29 04:39:58;;;;;;;21.08;11.13;;;9.60;91.20;;;;;;5077449;28;20190;-39
2021/11/29 04:42:24;;;;;;;22.05;11.30;;;9.60;91.20;;;;;;5077010;28;20040;-35
2021/11/29 04:44:49;;;;;;;31.05;12.27;;;9.60;91.20;;;;;;5077416;28;20035;-34
2021/11/29 04:47:15;;;;;;;25.25;13.48;;;9.60;91.20;;;;;;5076956;28;20090;-34
2021/11/29 04:49:41;;;;;;;30.48;15.30;;;9.60;91.30;;;;;;5077519;28;20033;-39
2021/11/29 04:52:07;;;;;;;25.77;13.10;;;9.60;91.40;;;;;;5076941;28;20036;-35
2021/11/29 04:54:33;;;;;;;25.35;13.13;;;9.60;91.30;;;;;;5076686;28;20083;-34
2021/11/29 04:56:59;;;;;;;29.80;15.05;;;9.60;91.30;;;;;;5076931;28;20064;-39
2021/11/29 04:59:25;;;;;;;40.78;19.23;;;9.60;91.30;;;;;;5076946;28;20025;-38
2021/11/29 05:01:51;;;;;;;43.40;21.08;;;9.60;91.50;;;;;;5076533;28;20082;-40
2021/11/29 05:04:16;;;;;;;57.13;25.15;;;9.70;91.80;;;;;;5076876;28;20082;-39
2021/11/29 05:06:42;;;;;;;53.65;27.05;;;9.70;92.30;;;;;;5076792;28;20032;-38
2021/11/29 05:09:11;;;;;;;57.08;26.13;;;9.70;92.70;;;;;;5076772;28;20024;-38
2021/11/29 05:11:37;;;;;;;61.92;28.48;;;9.80;93.00;;;;;;5076291;28;20039;-34
2021/11/29 05:14:03;;;;;;;68.40;27.65;;;9.90;93.20;;;;;;5076532;28;20411;-39
2021/11/29 05:16:29;;;;;;;59.95;29.95;;;10.00;93.50;;;;;;5075060;28;20111;-39
2021/11/29 05:18:55;;;;;;;69.30;31.30;;;10.10;93.80;;;;;;5076457;28;20043;-38
2021/11/29 05:21:22;;;;;;;62.92;27.40;;;10.20;94.20;;;;;;5075512;28;20070;-34
2021/11/29 05:23:48;;;;;;;85.28;37.92;;;10.30;93.90;;;;;;5075947;28;20444;-38
2021/11/29 05:26:21;;;;;;;79.40;30.90;;;10.30;93.30;;;;;;5076269;28;20037;-35
2021/11/29 05:28:48;;;;;;;115.50;39.22;;;10.40;92.90;;;;;;5076394;28;20032;-34
2021/11/29 05:31:14;;;;;;;130.15;44.47;;;10.40;93.20;;;;;;5075882;28;20025;-40
2021/11/29 05:33:39;;;;;;;129.85;44.10;;;10.50;93.50;;;;;;5075753;28;20097;-34
2021/11/29 05:36:05;;;;;;;129.25;46.78;;;10.50;93.60;;;;;;5074678;28;20040;-40
2021/11/29 05:38:31;;;;;;;135.18;45.70;;;10.60;93.80;;;;;;5074585;28;20043;-38
2021/11/29 05:40:57;;;;;;;141.30;45.88;;;10.70;93.80;;;;;;5076180;28;20310;-38
2021/11/29 05:43:23;;;;;;;131.15;44.03;;;10.70;93.80;;;;;;5075601;28;20040;-38
2021/11/29 05:45:49;;;;;;;115.82;42.13;;;10.80;93.90;;;;;;5076103;28;20039;-39
2021/11/29 05:48:15;;;;;;;131.10;44.10;;;10.80;93.90;;;;;;5075903;28;20028;-34
2021/11/29 05:50:41;;;;;;;123.35;42.03;;;10.90;93.90;;;;;;5075557;28;20033;-35
2021/11/29 05:53:06;;;;;;;94.07;37.05;;;11.00;94.00;;;;;;5075428;28;20033;-34
2021/11/29 05:55:32;;;;;;;112.43;38.85;;;11.10;94.10;;;;;;5075277;28;20131;-34
2021/11/29 05:57:58;;;;;;;117.35;39.95;;;11.10;94.00;;;;;;5075867;28;20040;-38
2021/11/29 06:00:25;;;;;;;129.90;46.60;;;11.20;94.00;;;;;;5072084;28;20082;-39
2021/11/29 06:02:51;;;;;;;131.98;47.33;;;11.30;94.10;;;;;;5064351;28;20036;-40
2021/11/29 06:05:17;;;;;;;114.47;41.00;;;11.30;94.00;;;;;;5055037;28;20398;-40
2021/11/29 06:07:44;;;;;;;95.80;36.95;;;11.40;93.90;;;;;;5055441;28;20033;-34
2021/11/29 06:10:11;;;;;;;58.25;26.25;;;11.50;93.80;;;;;;5055516;28;20108;-40
2021/11/29 06:12:37;;;;;;;70.95;30.38;;;11.50;93.30;;;;;;5055371;28;20033;-35
2021/11/29 06:15:04;;;;;;;63.45;27.75;;;11.50;93.20;;;;;;5055202;28;20033;-39
2021/11/29 06:17:30;;;;;;;44.92;22.25;;;11.50;93.10;;;;;;5055418;28;20409;-36
2021/11/29 06:19:55;;;;;;;37.45;19.83;;;11.50;92.40;;;;;;5055942;28;20040;-34
2021/11/29 06:22:21;;;;;;;38.80;18.80;;;11.50;91.90;;;;;;5055455;28;20025;-38
2021/11/29 06:24:47;;;;;;;49.85;22.75;;;11.50;91.60;;;;;;5055107;28;20032;-38
2021/11/29 06:27:13;;;;;;;58.33;26.85;;;11.50;91.90;;;;;;5055099;28;20040;-40
2021/11/29 06:29:39;;;;;;;59.83;27.48;;;11.40;92.20;;;;;;5055567;28;20037;-34
2021/11/29 06:32:05;;;;;;;87.28;33.47;;;11.40;92.70;;;;;;5055221;28;20460;-39
2021/11/29 06:34:30;;;;;;;93.43;37.28;;;11.40;93.30;;;;;;5055567;28;20359;-34
2021/11/29 06:36:58;;;;;;;100.47;40.75;;;11.50;93.70;;;;;;5055258;28;20037;-34
2021/11/29 06:39:23;;;;;;;102.22;39.15;;;11.50;93.80;;;;;;5055460;28;20044;-34
2021/11/29 06:41:49;;;;;;;112.30;40.08;;;11.60;94.00;;;;;;5055110;28;20021;-39
2021/11/29 06:44:15;;;;;;;111.85;41.78;;;11.60;94.10;;;;;;5055385;28;20033;-39
2021/11/29 06:46:42;;;;;;;102.30;39.47;;;11.70;94.20;;;;;;5054998;28;20029;-39
2021/11/29 06:49:07;;;;;;;92.38;37.70;;;11.80;94.10;;;;;;5055240;28;20037;-33
2021/11/29 06:51:34;;;;;;;75.68;31.80;;;11.80;94.10;;;;;;5055149;28;20036;-39
2021/11/29 06:54:00;;;;;;;78.72;32.15;;;11.90;94.00;;;;;;5063460;28;20053;-39
2021/11/29 06:56:27;;;;;;;61.58;28.30;;;11.90;93.90;;;;;;5074935;28;20040;-39
2021/11/29 06:58:52;;;;;;;52.60;26.38;;;12.00;93.90;;;;;;5074890;28;20321;-39
2021/11/29 07:01:18;;;;;;;45.30;25.98;;;12.00;93.80;;;;;;5072189;28;20037;-36
2021/11/29 07:03:45;;;;;;;51.65;26.27;;;12.00;93.70;;;;;;5074894;28;20401;-40
2021/11/29 07:06:11;;;;;;;56.47;28.92;;;12.10;93.60;;;;;;5078281;28;20128;-35
2021/11/29 07:08:37;;;;;;;75.97;32.33;;;12.10;93.50;;;;;;5077563;28;20166;-41
2021/11/29 07:11:04;;;;;;;72.00;32.03;;;12.20;93.50;;;;;;5078145;28;20389;-41
2021/11/29 07:13:30;;;;;;;77.57;34.38;;;12.20;93.40;;;;;;5077885;28;20381;-34
2021/11/29 07:15:57;;;;;;;95.07;36.95;;;12.20;93.30;;;;;;5076009;28;20332;-34
2021/11/29 07:18:22;;;;;;;99.00;40.17;;;12.20;93.20;;;;;;5053908;28;20111;-34
2021/11/29 07:20:48;;;;;;;116.70;43.60;;;12.20;93.20;;;;;;5056907;28;20136;-42
2021/11/29 07:23:15;;;;;;;123.47;46.50;;;12.30;93.20;;;;;;5055925;28;20025;-34
2021/11/29 07:25:40;;;;;;;132.18;45.30;;;12.30;93.10;;;;;;5058206;28;20420;-39
2021/11/29 07:28:06;;;;;;;120.95;43.80;;;12.30;93.10;;;;;;5057650;28;20059;-34
2021/11/29 07:30:32;;;;;;;110.05;41.85;;;12.30;93.10;;;;;;5057641;28;20029;-41
2021/11/29 07:32:58;;;;;;;98.07;41.35;;;12.30;93.10;;;;;;5057795;28;20064;-41
2021/11/29 07:35:28;;;;;;;95.80;39.85;;;12.40;93.00;;;;;;5057494;28;20370;-34
2021/11/29 07:37:55;;;;;;;91.53;39.83;;;12.40;92.90;;;;;;5056993;28;20060;-40
2021/11/29 07:40:27;;;;;;;92.18;42.65;;;12.40;92.90;;;;;;5056231;28;20270;-40
2021/11/29 07:42:54;;;;;;;94.30;38.00;;;12.40;92.90;;;;;;5057485;28;20366;-40
2021/11/29 07:45:20;;;;;;;93.55;41.47;;;12.40;92.80;;;;;;5056334;28;20082;-41
2021/11/29 07:47:46;;;;;;;89.57;39.90;;;12.40;92.70;;;;;;5057225;28;20336;-40
2021/11/29 07:50:15;;;;;;;85.75;37.45;;;12.50;92.70;;;;;;5057929;28;20037;-41
2021/11/29 07:52:44;;;;;;;77.25;33.50;;;12.50;92.70;;;;;;5057343;28;20025;-41
2021/11/29 07:55:12;;;;;;;68.13;30.17;;;12.50;92.60;;;;;;5057312;28;20057;-32
2021/11/29 07:57:38;;;;;;;58.92;28.60;;;12.50;92.50;;;;;;5057434;28;20203;-41
2021/11/29 08:00:08;;;;;;;51.70;27.58;;;12.60;92.50;;;;;;5057457;28;20033;-40
2021/11/29 08:02:34;;;;;;;47.67;25.27;;;12.60;92.50;;;;;;5057005;28;20452;-41
2021/11/29 08:05:00;;;;;;;52.88;28.45;;;12.70;92.40;;;;;;5057620;28;20025;-41
2021/11/29 08:07:26;;;;;;;48.15;25.30;;;12.70;92.30;;;;;;5056832;28;20025;-32
2021/11/29 08:09:52;;;;;;;45.15;24.20;;;12.70;92.20;;;;;;5056677;28;20040;-40
2021/11/29 08:12:18;;;;;;;52.97;27.55;;;12.70;92.10;;;;;;5056651;28;20025;-40
2021/11/29 08:14:44;;;;;;;48.80;26.25;;;12.80;92.10;;;;;;5056440;28;20402;-40
2021/11/29 08:17:09;;;;;;;48.17;28.13;;;12.80;91.90;;;;;;5056762;28;20052;-39
2021/11/29 08:19:35;;;;;;;47.95;26.80;;;12.80;92.00;;;;;;5056948;28;20029;-32
2021/11/29 08:22:01;;;;;;;40.28;22.80;;;12.80;91.90;;;;;;5056653;28;20120;-40
2021/11/29 08:24:26;;;;;;;53.92;29.25;;;12.90;91.90;;;;;;5057134;28;20108;-32
2021/11/29 08:26:52;;;;;;;41.88;22.17;;;12.90;91.80;;;;;;5056638;28;20035;-33
2021/11/29 08:29:18;;;;;;;35.80;21.50;;;12.90;91.70;;;;;;5056956;28;20025;-32
2021/11/29 08:31:44;;;;;;;37.17;20.52;;;12.90;91.50;;;;;;5056875;28;20370;-33
2021/11/29 08:34:10;;;;;;;33.63;18.27;;;12.90;91.40;;;;;;5056905;28;20032;-32
2021/11/29 08:36:36;;;;;;;31.08;18.23;;;12.90;91.30;;;;;;5056686;28;20112;-41
2021/11/29 08:39:06;;;;;;;32.05;19.17;;;12.90;91.40;;;;;;5056711;28;20032;-36
2021/11/29 08:41:33;;;;;;;40.43;21.73;;;13.00;91.30;;;;;;5056368;28;20112;-32
2021/11/29 08:43:59;;;;;;;32.67;19.40;;;13.00;91.30;;;;;;5056889;28;20032;-32
2021/11/29 08:46:25;;;;;;;35.70;20.50;;;13.00;91.40;;;;;;5056178;28;20475;-40
2021/11/29 08:48:51;;;;;;;48.58;22.02;;;13.00;91.30;;;;;;5056666;28;20029;-40
2021/11/29 08:51:17;;;;;;;40.85;20.27;;;13.00;91.30;;;;;;5056089;28;20372;-32
2021/11/29 08:53:44;;;;;;;85.97;45.28;;;13.00;91.30;;;;;;5056040;28;20049;-31
2021/11/29 08:56:10;;;;;;;45.63;24.40;;;13.00;91.30;;;;;;5056401;28;20033;-41
2021/11/29 08:58:36;;;;;;;106.05;57.45;;;13.00;91.20;;;;;;5055470;28;20379;-41
2021/11/29 09:01:03;;;;;;;60.47;30.75;;;13.10;91.30;;;;;;5066617;28;20070;-32
2021/11/29 09:03:29;;;;;;;44.20;23.65;;;13.10;91.20;;;;;;5056419;28;20035;-41
2021/11/29 09:05:56;;;;;;;51.58;27.90;;;13.10;91.10;;;;;;5056047;28;20040;-32
2021/11/29 09:08:22;;;;;;;52.25;26.42;;;13.10;91.10;;;;;;5055852;28;20053;-32
2021/11/29 09:10:49;;;;;;;37.78;22.92;;;13.10;91.10;;;;;;5056047;28;20413;-41
2021/11/29 09:13:15;;;;;;;32.47;18.10;;;13.10;91.00;;;;;;5055698;28;20028;-33
2021/11/29 09:15:44;;;;;;;33.35;21.23;;;13.10;91.00;;;;;;5056117;28;20041;-33
2021/11/29 09:18:11;;;;;;;37.88;20.67;;;13.10;91.10;;;;;;5056148;28;20025;-32
2021/11/29 09:20:38;;;;;;;42.63;20.08;;;13.10;91.10;;;;;;5055750;28;20036;-41
2021/11/29 09:23:06;;;;;;;36.20;18.20;;;13.10;91.20;;;;;;5055555;28;20029;-32
2021/11/29 09:25:33;;;;;;;48.70;20.42;;;13.10;91.20;;;;;;5061812;28;20040;-40
2021/11/29 09:27:59;;;;;;;38.35;19.85;;;13.10;91.20;;;;;;5059554;28;20021;-33
2021/11/29 09:30:27;;;;;;;50.33;25.98;;;13.00;91.20;;;;;;5057363;28;20029;-32
2021/11/29 09:32:52;;;;;;;56.83;28.38;;;13.00;91.20;;;;;;5063241;28;20024;-41
2021/11/29 09:35:20;;;;;;;53.75;27.35;;;13.00;91.30;;;;;;5055413;28;20059;-41
2021/11/29 09:37:47;;;;;;;64.30;29.55;;;13.00;91.30;;;;;;5055229;28;20440;-41
2021/11/29 09:40:19;;;;;;;40.83;22.08;;;13.00;91.40;;;;;;5067863;28;20028;-32
2021/11/29 09:42:44;;;;;;;41.85;22.60;;;13.00;91.40;;;;;;5055361;28;20024;-41
2021/11/29 09:45:13;;;;;;;36.22;20.70;;;13.00;91.50;;;;;;5055215;28;20437;-32
2021/11/29 09:47:40;;;;;;;47.50;25.63;;;13.00;91.50;;;;;;5055126;28;20021;-33
2021/11/29 09:50:08;;;;;;;53.15;31.25;;;13.00;91.50;;;;;;5054319;28;20029;-40
2021/11/29 09:52:34;;;;;;;54.58;30.55;;;13.00;91.60;;;;;;5054900;28;20124;-41
2021/11/29 09:55:00;;;;;;;40.40;22.70;;;13.00;91.60;;;;;;5055358;28;20076;-31
2021/11/29 09:57:27;;;;;;;62.92;32.83;;;13.00;91.70;;;;;;5055526;28;20358;-48
2021/11/29 09:59:52;;;;;;;71.72;34.90;;;12.90;91.70;;;;;;5054208;28;20035;-36
2021/11/29 10:02:18;;;;;;;36.58;21.17;;;13.00;91.80;;;;;;5055191;28;20044;-47
2021/11/29 10:04:49;;;;;;;40.85;19.63;;;13.00;91.80;;;;;;5055138;28;20025;-35
2021/11/29 10:10:57;;;;;;;49.85;24.05;;;13.00;91.40;;;;;;5072342;28;20429;-47
2021/11/29 10:13:24;;;;;;;36.25;20.83;;;12.90;91.70;;;;;;5072283;28;20112;-34
2021/11/29 10:15:51;;;;;;;45.00;21.15;;;12.90;91.80;;;;;;5071522;28;20328;-47
2021/11/29 10:18:23;;;;;;;42.45;21.73;;;12.90;91.90;;;;;;5072442;28;20020;-36
2021/11/29 10:20:58;;;;;;;44.70;21.50;;;12.90;92.00;;;;;;5072505;28;20387;-48
2021/11/29 10:23:35;;;;;;;50.10;25.75;;;12.90;92.10;;;;;;5072511;28;20041;-37
2021/11/29 10:26:26;;;;;;;57.97;30.67;;;12.90;92.20;;;;;;5072419;28;20090;-35
2021/11/29 10:29:04;;;;;;;57.25;27.83;;;12.90;92.20;;;;;;5072014;28;20103;-35
2021/11/29 10:31:37;;;;;;;64.57;31.30;;;12.90;92.30;;;;;;5072665;28;20027;-34
2021/11/29 10:34:29;;;;;;;93.47;45.65;;;12.90;92.40;;;;;;5072131;28;20025;-35
2021/11/29 10:37:14;;;;;;;82.30;38.65;;;12.90;92.40;;;;;;5072160;28;20102;-47
2021/11/29 10:39:44;;;;;;;76.32;39.55;;;12.90;92.40;;;;;;5072122;28;20037;-47
2021/11/29 10:42:12;;;;;;;116.38;57.72;;;12.90;92.70;;;;;;5072661;28;20107;-35
2021/11/29 10:44:45;;;;;;;102.95;49.42;;;12.90;92.80;;;;;;5071917;28;20039;-35
2021/11/29 10:47:16;;;;;;;72.90;39.25;;;12.90;92.80;;;;;;5071814;28;20048;-45
2021/11/29 10:49:50;;;;;;;37.83;21.23;;;12.90;92.50;;;;;;5071838;28;20107;-38
2021/11/29 10:52:19;;;;;;;32.97;19.00;;;12.90;92.00;;;;;;5071964;28;20104;-34
2021/11/29 10:54:45;;;;;;;23.60;15.02;;;12.80;91.60;;;;;;5071853;28;20033;-36
2021/11/29 10:57:14;;;;;;;26.75;15.38;;;12.80;91.30;;;;;;5072133;28;20048;-35
2021/11/29 10:59:43;;;;;;;26.50;14.20;;;12.70;90.90;;;;;;5071534;28;20329;-35
2021/11/29 11:02:11;;;;;;;23.05;14.38;;;12.60;90.70;;;;;;5063063;28;20108;-38
2021/11/29 11:04:43;;;;;;;22.33;13.25;;;12.60;90.50;;;;;;5051696;28;20033;-36
2021/11/29 11:07:20;;;;;;;18.52;12.23;;;12.50;90.40;;;;;;5070723;28;20021;-47
2021/11/29 11:09:57;;;;;;;18.98;12.20;;;12.40;90.40;;;;;;5070836;28;20140;-36
2021/11/29 11:12:32;;;;;;;22.27;13.63;;;12.40;90.20;;;;;;5071554;28;20021;-47
2021/11/29 11:15:08;;;;;;;17.42;11.80;;;12.30;90.00;;;;;;5071096;28;20132;-37
2021/11/29 11:17:34;;;;;;;22.02;12.48;;;12.20;90.00;;;;;;5070710;28;20439;-34
2021/11/29 11:20:03;;;;;;;15.77;10.00;;;12.10;89.80;;;;;;5070756;28;20041;-34
2021/11/29 11:22:36;;;;;;;11.32;8.15;;;12.10;89.70;;;;;;5057590;28;20082;-47
2021/11/29 11:25:10;;;;;;;12.07;8.18;;;12.00;89.50;;;;;;5057763;28;20370;-35
2021/11/29 11:27:37;;;;;;;12.70;9.15;;;11.90;89.50;;;;;;5057826;28;20029;-36
2021/11/29 11:30:06;;;;;;;12.57;9.27;;;11.80;89.90;;;;;;5058332;28;20033;-47
2021/11/29 11:32:49;;;;;;;13.30;9.00;;;11.80;90.00;;;;;;5057758;28;20028;-40
2021/11/29 11:35:16;;;;;;;9.15;7.45;;;11.70;90.10;;;;;;5058262;28;20108;-37
2021/11/29 11:37:45;;;;;;;14.35;9.63;;;11.70;90.00;;;;;;5057628;28;20063;-37
2021/11/29 11:40:17;;;;;;;15.07;10.15;;;11.60;89.90;;;;;;5058137;28;20069;-35
2021/11/29 11:42:44;;;;;;;11.48;8.65;;;11.60;90.00;;;;;;5057800;28;20057;-47
2021/11/29 11:45:13;;;;;;;14.60;9.20;;;11.50;90.10;;;;;;5057899;28;20033;-34
2021/11/29 11:47:39;;;;;;;15.30;11.15;;;11.50;90.20;;;;;;5057635;28;20351;-48
2021/11/29 11:50:08;;;;;;;12.23;9.30;;;11.50;90.20;;;;;;5057808;28;20362;-34
2021/11/29 11:52:34;;;;;;;11.35;8.93;;;11.50;90.40;;;;;;5057222;28;20485;-47
2021/11/29 11:55:01;;;;;;;14.02;10.07;;;11.40;90.50;;;;;;5057588;28;20036;-34
2021/11/29 11:57:29;;;;;;;21.45;11.13;;;11.40;90.60;;;;;;5057310;28;20423;-47
2021/11/29 12:00:01;;;;;;;12.80;8.68;;;11.40;90.80;;;;;;5057147;28;20064;-37
2021/11/29 12:02:47;;;;;;;10.90;8.05;;;11.40;90.80;;;;;;5057608;28;20029;-47
2021/11/29 12:05:24;;;;;;;14.63;8.93;;;11.40;90.70;;;;;;5057268;28;20032;-47
2021/11/29 12:07:51;;;;;;;11.73;8.45;;;11.40;90.70;;;;;;5049898;28;20311;-35
2021/11/29 12:10:35;;;;;;;9.90;8.02;;;11.40;90.70;;;;;;5045548;28;20049;-37
2021/11/29 12:13:11;;;;;;;9.15;7.65;;;11.40;90.60;;;;;;5037783;28;20033;-47
2021/11/29 12:15:46;;;;;;;12.15;8.15;;;11.30;90.80;;;;;;5037613;28;20065;-36
2021/11/29 12:18:32;;;;;;;9.07;7.13;;;11.40;90.70;;;;;;5037498;28;20021;-35
2021/11/29 12:21:21;;;;;;;10.50;6.82;;;11.30;90.70;;;;;;5037470;28;20075;-47
2021/11/29 12:24:01;;;;;;;10.43;7.50;;;11.40;90.60;;;;;;5037383;28;20044;-35
2021/11/29 12:29:23;;;;;;;9.25;6.70;;;11.40;90.70;;;;;;5037062;28;20333;-35
2021/11/29 12:32:01;;;;;;;12.20;8.90;;;11.30;90.80;;;;;;5043744;28;20029;-48
2021/11/29 12:34:49;;;;;;;34.72;21.13;;;11.30;90.80;;;;;;5056097;28;20033;-37
2021/11/29 12:37:22;;;;;;;32.58;19.10;;;11.40;90.80;;;;;;5056872;28;20074;-37
2021/11/29 12:39:51;;;;;;;33.55;18.45;;;11.30;91.20;;;;;;5056602;28;20425;-47